Time;durP1;ratioP1;P1;durP2;ratioP2;P2;SDS_P1;SDS_P2;PMS_P1;PMS_P2;Temp;Humidity;BMP_temperature;BMP_pressure;BME280_temperature;BME280_humidity;BME280_pressure;Samples;Min_cycle;Max_cycle;Signal;HPM_P1;HPM_P2
2021/08/22 00:00:43;;;;;;;6.00;4.07;;;;;;;22.78;51.40;100307.00;5086536;28;20028;-22
2021/08/22 00:03:09;;;;;;;6.88;3.95;;;;;;;23.00;50.55;100300.94;5086165;28;20027;-22
2021/08/22 00:05:34;;;;;;;5.75;4.13;;;;;;;23.11;50.16;100308.97;5086429;28;20028;-22
2021/08/22 00:08:00;;;;;;;6.10;3.63;;;;;;;22.54;51.57;100306.28;5086505;28;20036;-22
2021/08/22 00:10:25;;;;;;;6.70;4.15;;;;;;;22.28;52.65;100301.16;5086136;28;20086;-22
2021/08/22 00:12:51;;;;;;;6.32;4.32;;;;;;;21.97;54.14;100289.84;5068400;28;20039;-22
2021/08/22 00:15:16;;;;;;;8.30;4.20;;;;;;;22.43;52.66;100281.13;5086361;28;20507;-22
2021/08/22 00:17:42;;;;;;;6.07;4.50;;;;;;;22.31;53.05;100297.84;5086028;28;20067;-22
2021/08/22 00:20:08;;;;;;;5.60;3.92;;;;;;;22.22;53.42;100286.00;5067892;28;20037;-22
2021/08/22 00:22:34;;;;;;;6.35;4.85;;;;;;;22.34;53.06;100282.91;5085923;28;20032;-21
2021/08/22 00:24:59;;;;;;;7.55;5.15;;;;;;;22.90;51.94;100300.31;5086300;28;20031;-22
2021/08/22 00:27:24;;;;;;;6.55;4.40;;;;;;;23.06;50.65;100304.44;5086126;28;20028;-22
2021/08/22 00:29:50;;;;;;;7.30;4.60;;;;;;;22.93;51.23;100305.97;5086135;28;20039;-22
2021/08/22 00:32:15;;;;;;;6.75;4.90;;;;;;;22.52;52.21;100289.44;5085846;28;20032;-22
2021/08/22 00:34:41;;;;;;;8.80;4.60;;;;;;;22.11;53.68;100295.38;5086587;28;20035;-22
2021/08/22 00:37:06;;;;;;;6.05;4.43;;;;;;;21.74;54.61;100291.44;5086675;28;20039;-22
2021/08/22 00:39:32;;;;;;;7.40;4.35;;;;;;;22.40;53.21;100292.59;5089686;28;20036;-22
2021/08/22 00:41:58;;;;;;;8.02;4.22;;;;;;;22.76;51.89;100295.63;5090689;28;20541;-22
2021/08/22 00:44:24;;;;;;;6.18;4.32;;;;;;;22.75;51.71;100283.13;5090439;28;20062;-22
2021/08/22 00:46:50;;;;;;;7.47;4.72;;;;;;;22.35;52.87;100284.50;5090480;28;20837;-22
2021/08/22 00:49:16;;;;;;;6.32;4.15;;;;;;;21.97;54.28;100306.94;5090498;28;20081;-22
2021/08/22 00:51:41;;;;;;;11.57;5.10;;;;;;;21.75;55.12;100293.06;5072645;28;20031;-22
2021/08/22 00:54:07;;;;;;;8.25;4.90;;;;;;;21.68;55.40;100304.28;5072052;28;20039;-22
2021/08/22 00:56:33;;;;;;;9.32;5.10;;;;;;;21.58;55.47;100301.66;5090394;28;20067;-22
2021/08/22 00:59:25;;;;;;;6.95;4.85;;;;;;;22.12;53.56;100291.56;5090017;28;20107;-22
2021/08/22 01:01:51;;;;;;;7.45;4.95;;;;;;;22.22;52.57;100280.56;5086500;28;20060;-22
2021/08/22 01:04:16;;;;;;;8.20;4.90;;;;;;;22.35;52.21;100293.47;5054972;28;20070;-22
2021/08/22 01:06:58;;;;;;;6.80;4.60;;;;;;;21.85;54.41;100292.97;5089955;28;20059;-22
2021/08/22 01:09:28;;;;;;;8.77;5.25;;;;;;;21.32;56.05;100298.34;5074142;28;20044;-22
2021/08/22 01:11:53;;;;;;;6.38;4.85;;;;;;;21.18;56.86;100290.84;5090042;28;20028;-22
2021/08/22 01:14:25;;;;;;;6.72;4.65;;;;;;;21.32;56.53;100291.00;5054945;28;20028;-22
2021/08/22 01:16:53;;;;;;;8.85;4.45;;;;;;;21.11;57.48;100300.44;5072459;28;20077;-22
2021/08/22 01:19:41;;;;;;;8.25;5.10;;;;;;;21.41;56.32;100285.75;5089837;28;20031;-22
2021/08/22 01:22:07;;;;;;;8.50;5.00;;;;;;;21.97;54.30;100303.41;5058938;28;20040;-22
2021/08/22 01:24:32;;;;;;;9.82;4.95;;;;;;;21.95;53.90;100292.84;5089748;28;20036;-21
2021/08/22 01:26:58;;;;;;;8.70;5.25;;;;;;;21.85;54.09;100292.97;5055142;28;20032;-22
2021/08/22 01:29:26;;;;;;;7.43;4.80;;;;;;;21.36;55.82;100297.47;5071438;28;20052;-22
2021/08/22 01:31:51;;;;;;;8.10;5.18;;;;;;;21.20;56.07;100302.22;5071805;28;20027;-22
2021/08/22 01:34:18;;;;;;;6.72;5.35;;;;;;;21.33;55.96;100306.19;5054779;28;20404;-22
2021/08/22 01:36:43;;;;;;;11.68;5.03;;;;;;;21.18;56.76;100298.97;5055141;28;20020;-22
2021/08/22 01:39:09;;;;;;;7.03;5.18;;;;;;;21.65;54.47;100304.84;5054822;28;20099;-22
2021/08/22 01:41:34;;;;;;;7.20;5.28;;;;;;;21.93;53.68;100316.75;5071555;28;20020;-22
2021/08/22 01:44:00;;;;;;;10.32;5.90;;;;;;;21.72;53.87;100301.78;5089554;28;20560;-22
2021/08/22 01:46:30;;;;;;;10.02;5.80;;;;;;;21.54;54.55;100309.56;5071219;28;20091;-22
2021/08/22 01:48:56;;;;;;;8.13;5.00;;;;;;;21.83;53.62;100289.72;5070964;28;20058;-22
2021/08/22 01:51:21;;;;;;;7.25;5.63;;;;;;;21.92;54.11;100309.69;5089631;28;20024;-22
2021/08/22 01:53:47;;;;;;;10.75;5.70;;;;;;;21.58;54.43;100309.81;5054369;28;20036;-22
2021/08/22 01:56:12;;;;;;;9.90;5.40;;;;;;;20.44;57.33;100296.19;5054189;28;20055;-22
2021/08/22 01:58:38;;;;;;;8.02;6.05;;;;;;;20.12;59.07;100312.84;5070818;28;20048;-22
2021/08/22 02:01:04;;;;;;;8.48;5.90;;;;;;;19.95;59.70;100318.59;5089134;28;20101;-22
2021/08/22 02:04:03;;;;;;;7.65;5.75;;;;;;;19.95;59.91;100321.31;5089435;28;20768;-22
2021/08/22 02:06:47;;;;;;;9.77;6.22;;;;;;;19.62;60.65;100314.59;5045102;28;20032;-22
2021/08/22 02:09:12;;;;;;;6.95;5.43;;;;;;;19.55;60.11;100290.50;5089252;28;20054;-22
2021/08/22 02:11:42;;;;;;;7.25;5.68;;;;;;;19.82;59.96;100316.50;5071111;28;20064;-22
2021/08/22 02:14:07;;;;;;;8.63;5.65;;;;;;;19.61;60.30;100307.53;5088591;28;20040;-22
2021/08/22 02:16:33;;;;;;;7.63;5.63;;;;;;;19.87;59.62;100314.56;5054152;28;20063;-22
2021/08/22 02:18:58;;;;;;;8.60;5.63;;;;;;;19.73;60.14;100326.22;5054050;28;20024;-22
2021/08/22 02:21:24;;;;;;;10.13;5.20;;;;;;;19.72;60.03;100314.59;5070620;28;20093;-22
2021/08/22 02:23:52;;;;;;;9.65;5.53;;;;;;;19.48;60.70;100314.34;5070744;28;20052;-22
2021/08/22 02:26:18;;;;;;;8.57;6.20;;;;;;;19.56;60.85;100321.91;5070463;28;20107;-22
2021/08/22 02:29:04;;;;;;;9.48;5.60;;;;;;;19.91;59.84;100316.72;5088488;28;20035;-22
2021/08/22 02:31:30;;;;;;;9.52;6.30;;;;;;;20.06;59.19;100306.66;5088025;28;20824;-22
2021/08/22 02:33:56;;;;;;;9.35;6.05;;;;;;;20.06;59.37;100320.22;5088617;28;20093;-22
2021/08/22 02:36:22;;;;;;;10.90;6.38;;;;;;;20.13;59.05;100305.56;5088376;28;20031;-22
2021/08/22 02:38:47;;;;;;;9.90;6.10;;;;;;;20.20;58.66;100325.03;5088404;28;20085;-22
2021/08/22 02:41:13;;;;;;;7.53;5.60;;;;;;;20.36;58.48;100321.16;5088312;28;20484;-22
2021/08/22 02:43:39;;;;;;;8.77;6.20;;;;;;;20.51;57.93;100320.25;5088086;28;20063;-22
2021/08/22 02:46:04;;;;;;;7.50;5.95;;;;;;;20.63;58.11;100317.25;5088087;28;20038;-22
2021/08/22 02:48:30;;;;;;;9.98;6.60;;;;;;;20.57;57.93;100315.63;5088171;28;20039;-22
2021/08/22 02:50:55;;;;;;;8.50;6.35;;;;;;;20.77;57.07;100322.88;5088120;28;20461;-22
2021/08/22 02:53:20;;;;;;;8.95;6.25;;;;;;;20.99;56.71;100309.72;5088675;28;20051;-23
2021/08/22 02:55:46;;;;;;;8.60;6.18;;;;;;;21.12;55.63;100324.53;5088094;28;20039;-22
2021/08/22 02:58:12;;;;;;;8.50;6.22;;;;;;;20.85;56.62;100309.53;5087455;28;20031;-22
2021/08/22 03:00:37;;;;;;;9.40;6.40;;;;;;;20.20;58.29;100311.47;5087605;28;20478;-23
2021/08/22 03:03:03;;;;;;;9.95;7.05;;;;;;;19.71;59.80;100295.94;5087660;28;20034;-22
2021/08/22 03:05:28;;;;;;;8.77;6.32;;;;;;;19.98;59.77;100312.66;5088099;28;20107;-22
2021/08/22 03:07:54;;;;;;;8.88;6.32;;;;;;;20.10;58.87;100309.63;5088204;28;20032;-22
2021/08/22 03:10:19;;;;;;;10.35;6.32;;;;;;;20.14;58.86;100315.28;5087794;28;20031;-22
2021/08/22 03:12:45;;;;;;;10.73;6.63;;;;;;;20.32;58.35;100317.38;5087696;28;20031;-22
2021/08/22 03:15:10;;;;;;;11.77;6.57;;;;;;;20.14;58.49;100299.84;5087824;28;20032;-22
2021/08/22 03:17:36;;;;;;;9.25;6.68;;;;;;;20.32;58.54;100311.97;5087483;28;20036;-22
2021/08/22 03:20:04;;;;;;;9.20;6.25;;;;;;;20.21;58.26;100305.00;5087505;28;20032;-22
2021/08/22 03:22:29;;;;;;;11.68;6.75;;;;;;;20.30;58.15;100314.16;5087586;28;20068;-22
2021/08/22 03:24:55;;;;;;;9.07;6.13;;;;;;;19.91;59.73;100330.25;5087923;28;20059;-22
2021/08/22 03:27:20;;;;;;;11.13;7.15;;;;;;;19.83;59.94;100329.72;5087484;28;20032;-22
2021/08/22 03:29:46;;;;;;;8.35;6.50;;;;;;;20.00;58.99;100321.31;5087460;28;20043;-22
2021/08/22 03:32:11;;;;;;;10.45;7.20;;;;;;;19.65;60.71;100331.06;5087238;28;20035;-21
2021/08/22 03:34:37;;;;;;;10.50;6.97;;;;;;;19.07;62.64;100325.94;5087480;28;20039;-22
2021/08/22 03:37:02;;;;;;;10.57;6.20;;;;;;;18.60;64.50;100318.81;5087677;28;20047;-22
2021/08/22 03:39:28;;;;;;;10.77;6.85;;;;;;;18.70;63.94;100330.75;5087509;28;20400;-22
2021/08/22 03:41:53;;;;;;;10.82;7.13;;;;;;;18.44;64.88;100307.16;5087147;28;20024;-22
2021/08/22 03:44:19;;;;;;;11.27;7.43;;;;;;;19.03;62.97;100324.06;5087115;28;20165;-22
2021/08/22 03:46:44;;;;;;;10.32;6.57;;;;;;;19.73;60.23;100331.66;5087683;28;20043;-22
2021/08/22 03:49:10;;;;;;;11.77;7.32;;;;;;;19.58;61.01;100330.56;5087271;28;20031;-22
2021/08/22 03:51:35;;;;;;;10.82;7.07;;;;;;;18.98;62.97;100326.75;5087450;28;20462;-22
2021/08/22 03:54:01;;;;;;;9.95;6.70;;;;;;;18.91;63.28;100327.00;5087187;28;20031;-22
2021/08/22 03:56:26;;;;;;;15.32;8.07;;;;;;;18.87;63.45;100326.72;5086976;28;20442;-22
2021/08/22 03:58:52;;;;;;;13.30;6.82;;;;;;;18.53;64.74;100320.13;5086760;28;20474;-22
2021/08/22 04:01:17;;;;;;;15.18;6.97;;;;;;;18.54;64.72;100327.19;5086966;28;20043;-22
2021/08/22 04:03:43;;;;;;;11.02;6.97;;;;;;;18.38;64.86;100329.00;5087137;28;20036;-22
2021/08/22 04:06:08;;;;;;;13.43;7.10;;;;;;;19.02;62.36;100317.84;5086892;28;20035;-23
2021/08/22 04:08:38;;;;;;;13.20;6.88;;;;;;;18.96;62.96;100339.72;5087207;28;20403;-22
2021/08/22 04:11:04;;;;;;;16.77;7.30;;;;;;;19.20;61.72;100319.19;5086928;28;20026;-22
2021/08/22 04:13:29;;;;;;;10.20;6.95;;;;;;;19.07;62.26;100336.75;5090055;28;20032;-22
2021/08/22 04:15:55;;;;;;;8.98;7.03;;;;;;;18.83;63.16;100328.34;5091373;28;20052;-22
2021/08/22 04:18:20;;;;;;;9.52;6.80;;;;;;;19.13;62.38;100329.47;5091214;28;20090;-23
2021/08/22 04:20:46;;;;;;;12.60;6.28;;;;;;;19.59;61.07;100345.69;5091109;28;20020;-22
2021/08/22 04:23:11;;;;;;;12.23;6.80;;;;;;;19.70;60.90;100337.59;5091316;28;20040;-22
2021/08/22 04:25:37;;;;;;;9.18;7.15;;;;;;;19.58;61.29;100352.19;5072888;28;20555;-22
2021/08/22 04:28:04;;;;;;;9.73;7.13;;;;;;;19.36;62.05;100333.53;5090825;28;20036;-22
2021/08/22 04:30:30;;;;;;;9.95;7.00;;;;;;;19.01;63.49;100339.75;5091021;28;20028;-22
2021/08/22 04:32:55;;;;;;;11.68;6.88;;;;;;;18.95;63.70;100338.91;5091258;28;20051;-22
2021/08/22 04:35:21;;;;;;;9.45;6.68;;;;;;;19.52;62.05;100342.47;5090977;28;20032;-22
2021/08/22 04:37:46;;;;;;;10.05;7.45;;;;;;;19.70;61.28;100345.69;5090621;28;20408;-22
2021/08/22 04:40:12;;;;;;;12.93;8.05;;;;;;;20.16;59.96;100343.72;5090225;28;20027;-22
2021/08/22 04:42:38;;;;;;;14.73;7.82;;;;;;;20.32;59.41;100332.84;5090652;28;20032;-22
2021/08/22 04:45:04;;;;;;;12.32;8.05;;;;;;;20.65;58.70;100334.06;5090472;28;20027;-22
2021/08/22 04:47:29;;;;;;;11.50;7.97;;;;;;;20.70;57.71;100336.75;5090744;28;20020;-22
2021/08/22 04:49:55;;;;;;;12.45;8.10;;;;;;;20.34;57.88;100338.78;5090505;28;20478;-22
2021/08/22 04:52:20;;;;;;;13.32;8.00;;;;;;;20.48;57.70;100340.59;5090153;28;20047;-23
2021/08/22 04:54:46;;;;;;;10.98;7.43;;;;;;;20.36;58.51;100348.25;5090523;28;20569;-22
2021/08/22 04:57:11;;;;;;;11.75;7.80;;;;;;;20.33;58.38;100335.28;5092218;28;20040;-22
2021/08/22 04:59:36;;;;;;;13.30;8.52;;;;;;;20.41;58.24;100359.06;5100546;28;20040;-22
2021/08/22 05:02:04;;;;;;;10.25;8.13;;;;;;;20.66;57.56;100365.50;5098224;28;20036;-22
2021/08/22 05:04:30;;;;;;;11.63;7.90;;;;;;;20.43;58.79;100356.91;5097267;28;20051;-22
2021/08/22 05:06:55;;;;;;;12.40;7.85;;;;;;;20.52;58.79;100365.25;5105388;28;20070;-22
2021/08/22 05:09:21;;;;;;;14.02;8.73;;;;;;;20.86;57.90;100372.69;5100036;28;20031;-22
2021/08/22 05:11:46;;;;;;;10.43;8.15;;;;;;;20.98;56.89;100364.22;5099117;28;20027;-22
2021/08/22 05:14:12;;;;;;;11.90;8.38;;;;;;;21.05;56.50;100365.53;5098023;28;20039;-22
2021/08/22 05:16:37;;;;;;;11.88;8.27;;;;;;;21.51;55.29;100369.81;5103524;28;20031;-22
2021/08/22 05:19:03;;;;;;;12.07;7.78;;;;;;;20.95;56.40;100375.63;5092039;28;20509;-22
2021/08/22 05:21:28;;;;;;;10.00;8.30;;;;;;;20.78;57.02;100374.09;5110507;28;20024;-22
2021/08/22 05:23:54;;;;;;;11.85;8.45;;;;;;;21.01;56.54;100367.19;5109340;28;20027;-22
2021/08/22 05:26:19;;;;;;;12.00;9.10;;;;;;;21.10;56.27;100361.97;5109654;28;20038;-22
2021/08/22 05:28:45;;;;;;;15.82;10.80;;;;;;;21.49;55.15;100382.84;5109097;28;20098;-22
2021/08/22 05:31:10;;;;;;;15.77;12.90;;;;;;;21.56;55.10;100387.97;5109119;28;20088;-22
2021/08/22 05:33:36;;;;;;;14.30;10.95;;;;;;;21.91;53.60;100372.47;5109115;28;20590;-22
2021/08/22 05:36:18;;;;;;;12.75;8.25;;;;;;;21.80;52.58;100360.88;5090633;28;20055;-22
2021/08/22 05:38:43;;;;;;;12.38;8.85;;;;;;;22.20;52.73;100383.28;5107243;28;20030;-22
2021/08/22 05:41:09;;;;;;;10.70;7.43;;;;;;;22.22;52.58;100383.78;5107655;28;20027;-22
2021/08/22 05:43:34;;;;;;;10.43;7.65;;;;;;;21.91;53.29;100367.03;5109689;28;20020;-22
2021/08/22 05:45:59;;;;;;;11.55;7.80;;;;;;;21.84;54.16;100379.03;5109815;28;20084;-23
2021/08/22 05:48:25;;;;;;;12.68;8.05;;;;;;;21.60;54.30;100378.19;5108873;28;20407;-21
2021/08/22 05:50:50;;;;;;;14.15;8.23;;;;;;;21.19;55.50;100378.47;5109393;28;20084;-22
2021/08/22 05:53:16;;;;;;;13.50;7.90;;;;;;;21.53;54.88;100367.63;5109627;28;20027;-22
2021/08/22 05:55:41;;;;;;;11.80;8.00;;;;;;;22.04;54.03;100385.34;5109664;28;20035;-22
2021/08/22 05:58:07;;;;;;;10.50;8.20;;;;;;;22.20;52.55;100369.69;5109142;28;20080;-22
2021/08/22 06:00:32;;;;;;;10.88;8.18;;;;;;;22.03;53.34;100373.69;5110078;28;20042;-22
2021/08/22 06:02:58;;;;;;;9.32;7.68;;;;;;;21.87;53.74;100369.50;5109489;28;20028;-22
2021/08/22 06:05:23;;;;;;;11.95;8.07;;;;;;;22.11;53.16;100379.56;5109505;28;20483;-22
2021/08/22 06:07:49;;;;;;;12.07;8.65;;;;;;;22.27;53.20;100381.88;5109506;28;20039;-22
2021/08/22 06:10:14;;;;;;;11.70;8.90;;;;;;;21.99;53.17;100361.78;5109343;28;20034;-22
2021/08/22 06:12:40;;;;;;;11.80;9.02;;;;;;;21.93;53.11;100376.50;5109265;28;20066;-22
2021/08/22 06:15:06;;;;;;;10.73;9.00;;;;;;;21.81;53.70;100373.34;5109317;28;20028;-22
2021/08/22 06:17:31;;;;;;;12.25;8.68;;;;;;;22.00;53.62;100385.09;5109013;28;20464;-22
2021/08/22 06:19:57;;;;;;;13.65;9.32;;;;;;;22.21;53.18;100368.56;5109236;28;20031;-22
2021/08/22 06:22:22;;;;;;;10.85;9.20;;;;;;;22.61;52.52;100374.66;5108935;28;20111;-22
2021/08/22 06:24:47;;;;;;;12.23;10.05;;;;;;;22.78;51.13;100376.88;5109084;28;20031;-22
2021/08/22 06:27:14;;;;;;;11.90;9.32;;;;;;;22.67;50.91;100376.22;5109027;28;20035;-22
2021/08/22 06:29:40;;;;;;;12.30;8.93;;;;;;;23.02;51.22;100369.47;5109244;28;20085;-22
2021/08/22 06:32:05;;;;;;;12.30;7.78;;;;;;;22.92;49.95;100374.25;5108849;28;20035;-22
2021/08/22 06:34:31;;;;;;;11.57;8.85;;;;;;;23.01;49.09;100372.50;5108981;28;20038;-22
2021/08/22 06:36:56;;;;;;;11.73;7.93;;;;;;;23.05;49.39;100373.53;5107987;28;20034;-22
2021/08/22 06:39:22;;;;;;;9.40;7.25;;;;;;;23.49;48.90;100377.72;5108822;28;20024;-22
2021/08/22 06:41:47;;;;;;;10.95;7.63;;;;;;;23.69;47.38;100375.78;5108687;28;20031;-22
2021/08/22 06:44:13;;;;;;;12.15;7.47;;;;;;;23.95;47.61;100382.41;5108551;28;20552;-22
2021/08/22 06:46:40;;;;;;;9.50;7.32;;;;;;;24.06;46.97;100372.94;5108932;28;20058;-21
2021/08/22 06:49:06;;;;;;;9.00;7.20;;;;;;;24.36;46.36;100375.38;5108829;28;20538;-22
2021/08/22 06:51:31;;;;;;;9.77;6.68;;;;;;;24.27;45.18;100370.63;5109152;28;20032;-22
2021/08/22 06:53:57;;;;;;;8.55;6.40;;;;;;;24.38;45.75;100382.13;5108760;28;20035;-21
2021/08/22 06:56:22;;;;;;;8.63;6.53;;;;;;;24.05;45.52;100379.50;5108168;28;20039;-22
2021/08/22 06:58:48;;;;;;;9.98;6.50;;;;;;;23.83;46.04;100372.00;5108308;28;20055;-22
2021/08/22 07:01:15;;;;;;;8.27;6.15;;;;;;;23.93;45.87;100384.63;5108818;28;20039;-22
2021/08/22 07:03:41;;;;;;;9.77;6.43;;;;;;;23.88;46.14;100362.94;5108124;28;20049;-22
2021/08/22 07:06:06;;;;;;;9.02;5.68;;;;;;;24.10;44.91;100372.34;5108279;28;20028;-22
2021/08/22 07:08:32;;;;;;;9.77;5.75;;;;;;;24.26;45.27;100368.19;5108226;28;20035;-22
2021/08/22 07:10:57;;;;;;;8.25;5.43;;;;;;;24.29;43.37;100367.59;5108562;28;20027;-22
2021/08/22 07:13:23;;;;;;;9.60;5.53;;;;;;;24.53;43.76;100380.22;5108545;28;20031;-22
2021/08/22 07:15:48;;;;;;;7.40;5.60;;;;;;;24.54;43.55;100373.66;5108548;28;20030;-22
2021/08/22 07:18:14;;;;;;;9.60;5.60;;;;;;;24.99;43.52;100373.78;5107951;28;20035;-22
2021/08/22 07:20:39;;;;;;;8.00;4.90;;;;;;;25.34;41.34;100371.34;5108507;28;20042;-22
2021/08/22 07:23:04;;;;;;;10.18;5.22;;;;;;;25.06;42.02;100374.16;5108015;28;20028;-22
2021/08/22 07:25:30;;;;;;;8.52;5.65;;;;;;;25.06;42.08;100368.69;5108550;28;20038;-22
2021/08/22 07:27:55;;;;;;;8.07;4.88;;;;;;;24.97;42.80;100359.63;5108276;28;20027;-21
2021/08/22 07:30:22;;;;;;;8.27;5.10;;;;;;;25.12;42.94;100369.38;5107999;28;20036;-22
2021/08/22 07:32:48;;;;;;;8.30;5.03;;;;;;;25.40;41.72;100361.91;5107817;28;20076;-22
2021/08/22 07:35:13;;;;;;;6.95;4.97;;;;;;;25.65;41.26;100363.97;5107778;28;20051;-22
2021/08/22 07:37:39;;;;;;;7.13;4.60;;;;;;;25.93;39.99;100358.38;5107869;28;20415;-22
2021/08/22 07:40:05;;;;;;;7.68;4.43;;;;;;;26.03;39.92;100365.47;5107269;28;20027;-22
2021/08/22 07:42:30;;;;;;;7.35;4.80;;;;;;;25.90;40.27;100361.72;5107633;28;20054;-22
2021/08/22 07:44:56;;;;;;;7.85;4.00;;;;;;;25.96;39.55;100368.66;5107684;28;20407;-22
2021/08/22 07:47:21;;;;;;;8.82;4.65;;;;;;;25.78;39.63;100375.13;5107055;28;20104;-22
2021/08/22 07:49:47;;;;;;;7.03;4.53;;;;;;;26.03;39.34;100368.19;5107721;28;20019;-23
2021/08/22 07:52:12;;;;;;;7.03;4.90;;;;;;;25.94;40.06;100359.97;5107649;28;20031;-22
2021/08/22 07:54:38;;;;;;;8.95;5.15;;;;;;;26.08;40.48;100370.81;5107604;28;20034;-22
2021/08/22 07:57:04;;;;;;;6.07;4.40;;;;;;;26.54;39.37;100374.97;5107204;28;20887;-22
2021/08/22 07:59:29;;;;;;;7.10;4.47;;;;;;;26.64;38.43;100371.13;5107360;28;20047;-22
2021/08/22 08:01:56;;;;;;;7.85;4.68;;;;;;;26.81;37.93;100349.28;5107427;28;20028;-22
2021/08/22 08:04:22;;;;;;;7.65;4.85;;;;;;;27.24;37.71;100366.84;5107122;28;20487;-22
2021/08/22 08:06:47;;;;;;;6.20;4.25;;;;;;;27.12;37.23;100353.78;5107632;28;20036;-22
2021/08/22 08:09:13;;;;;;;6.03;4.45;;;;;;;26.90;38.27;100353.94;5107746;28;20059;-22
2021/08/22 08:11:38;;;;;;;6.50;4.20;;;;;;;27.05;35.35;100342.50;5107624;28;20062;-22
2021/08/22 08:14:04;;;;;;;6.07;4.10;;;;;;;27.26;34.49;100345.44;5107212;28;20031;-22
2021/08/22 08:16:30;;;;;;;6.28;4.63;;;;;;;27.53;35.01;100352.47;5107043;28;20495;-22
2021/08/22 08:18:55;;;;;;;6.78;4.85;;;;;;;27.71;35.82;100353.22;5107371;28;20024;-22
2021/08/22 08:21:21;;;;;;;5.97;4.43;;;;;;;27.45;36.89;100334.91;5107214;28;20031;-22
2021/08/22 08:23:46;;;;;;;7.43;4.65;;;;;;;27.89;35.77;100355.91;5107712;28;20043;-22
2021/08/22 08:26:12;;;;;;;6.22;4.18;;;;;;;28.25;34.66;100349.94;5107317;28;20031;-22
2021/08/22 08:28:38;;;;;;;7.68;4.38;;;;;;;28.43;33.73;100354.19;5107401;28;20534;-22
2021/08/22 08:31:03;;;;;;;6.47;4.40;;;;;;;28.65;34.49;100350.38;5107417;28;20028;-22
2021/08/22 08:33:29;;;;;;;7.60;4.43;;;;;;;28.52;34.27;100326.72;5107125;28;20031;-22
2021/08/22 08:35:54;;;;;;;6.70;4.28;;;;;;;29.05;33.23;100343.56;5107225;28;20036;-22
2021/08/22 08:38:20;;;;;;;6.20;3.83;;;;;;;29.37;32.43;100346.72;5106753;28;20031;-22
2021/08/22 08:40:46;;;;;;;7.05;3.97;;;;;;;29.50;32.63;100342.84;5107224;28;20058;-22
2021/08/22 08:43:12;;;;;;;6.55;4.07;;;;;;;29.36;32.45;100347.84;5107486;28;20150;-22
2021/08/22 08:46:05;;;;;;;7.28;4.70;;;;;;;29.54;31.06;100343.75;5107134;28;20038;-22
2021/08/22 08:48:53;;;;;;;9.82;4.35;;;;;;;29.32;32.63;100324.94;5107204;28;20057;-22
2021/08/22 08:51:22;;;;;;;5.43;3.95;;;;;;;29.39;32.57;100333.44;5088856;28;20039;-22
2021/08/22 08:53:53;;;;;;;7.47;4.38;;;;;;;29.70;31.92;100329.38;5107140;28;20746;-22
2021/08/22 08:56:31;;;;;;;5.82;3.80;;;;;;;29.71;31.16;100325.50;5106590;28;20100;-22
2021/08/22 08:58:58;;;;;;;6.72;4.15;;;;;;;29.70;32.26;100323.88;5085600;28;20119;-22
2021/08/22 09:01:24;;;;;;;6.20;3.97;;;;;;;30.04;31.41;100328.97;5089211;28;20119;-22
2021/08/22 09:04:08;;;;;;;6.78;4.20;;;;;;;30.07;32.09;100329.41;5090909;28;20110;-22
2021/08/22 09:07:05;;;;;;;7.00;4.10;;;;;;;30.50;30.83;100325.28;5090267;28;20557;-22
2021/08/22 09:09:53;;;;;;;5.47;4.10;;;;;;;30.02;31.69;100328.50;5017672;28;20050;-22
2021/08/22 09:12:27;;;;;;;;;;;;;;;30.49;31.79;100323.69;5090624;28;20107;-22
2021/08/22 09:15:26;;;;;;;6.45;4.10;;;;;;;30.51;30.29;100315.88;5090280;28;19937;-22
2021/08/22 09:18:17;;;;;;;6.03;3.70;;;;;;;30.66;29.35;100320.63;5089797;28;20088;-22
2021/08/22 09:20:42;;;;;;;6.43;3.90;;;;;;;30.80;29.33;100315.53;5090039;28;20028;-22
2021/08/22 09:23:11;;;;;;;8.38;4.10;;;;;;;30.96;30.60;100306.56;5090088;28;20027;-22
2021/08/22 09:26:14;;;;;;;6.63;3.92;;;;;;;31.03;28.95;100299.28;5073383;28;20066;-22
2021/08/22 09:29:08;;;;;;;5.78;4.10;;;;;;;30.81;29.65;100299.81;5069760;28;20097;-21
2021/08/22 09:32:11;;;;;;;7.13;3.70;;;;;;;31.06;29.55;100294.22;5035189;28;20040;-22
2021/08/22 09:35:16;;;;;;;7.90;4.55;;;;;;;30.83;29.27;100309.34;5069605;28;20036;-22
2021/08/22 09:38:19;;;;;;;7.47;5.47;;;;;;;30.92;27.81;100300.16;5069853;28;20021;-22
2021/08/22 09:41:22;;;;;;;6.22;4.18;;;;;;;31.46;27.65;100296.91;5069285;28;20024;-22
2021/08/22 09:44:12;;;;;;;7.20;4.80;;;;;;;31.21;27.15;100297.03;5069389;28;20107;-22
2021/08/22 09:47:09;;;;;;;8.45;4.43;;;;;;;31.90;27.40;100296.00;5075174;28;20028;-22
2021/08/22 09:50:12;;;;;;;6.15;4.20;;;;;;;32.14;27.87;100295.81;5056232;28;20072;-22
2021/08/22 09:52:53;;;;;;;8.15;4.22;;;;;;;31.62;27.77;100297.69;5079779;28;20031;-22
2021/08/22 09:55:52;;;;;;;6.85;4.45;;;;;;;31.77;27.79;100287.84;5079795;28;20058;-22
2021/08/22 09:58:40;;;;;;;6.38;4.50;;;;;;;31.92;27.39;100283.47;5081841;28;20055;-22
2021/08/22 10:01:20;;;;;;;6.38;4.38;;;;;;;32.12;27.45;100291.81;5057061;28;20043;-22
2021/08/22 10:04:04;;;;;;;7.95;4.60;;;;;;;31.94;27.57;100283.91;5098686;28;20483;-22
2021/08/22 10:06:52;;;;;;;8.02;4.45;;;;;;;31.74;27.18;100282.25;5099158;28;20020;-21
2021/08/22 10:09:18;;;;;;;8.15;4.40;;;;;;;31.36;28.34;100272.59;5099661;28;20040;-21
2021/08/22 10:11:57;;;;;;;6.03;3.83;;;;;;;31.36;28.03;100286.38;5097872;28;20024;-21
2021/08/22 10:14:25;;;;;;;5.68;4.00;;;;;;;31.01;28.01;100276.00;5097239;28;20024;-21
2021/08/22 10:16:51;;;;;;;7.07;4.57;;;;;;;31.35;27.38;100282.03;5080883;28;20555;-22
2021/08/22 10:19:22;;;;;;;7.80;4.50;;;;;;;31.51;26.48;100277.34;5099176;28;20024;-22
2021/08/22 10:22:06;;;;;;;7.45;4.40;;;;;;;31.91;27.42;100262.53;5097692;28;20036;-22
2021/08/22 10:24:34;;;;;;;6.50;4.07;;;;;;;32.46;26.14;100281.13;5098487;28;20032;-22
2021/08/22 10:27:00;;;;;;;7.75;4.43;;;;;;;32.56;26.51;100275.84;5096966;28;20036;-22
2021/08/22 10:29:27;;;;;;;6.75;4.25;;;;;;;32.28;26.80;100270.47;5070461;28;20117;-21
2021/08/22 10:31:54;;;;;;;5.97;4.15;;;;;;;31.72;27.26;100271.56;5070516;28;20028;-22
2021/08/22 10:34:23;;;;;;;8.32;4.70;;;;;;;31.94;27.03;100278.38;5088215;28;20589;-21
2021/08/22 10:36:49;;;;;;;7.70;4.18;;;;;;;32.70;26.24;100275.34;5088609;28;20035;-21
2021/08/22 10:39:27;;;;;;;6.00;4.22;;;;;;;32.59;26.71;100285.34;5088416;28;20020;-22
2021/08/22 10:41:56;;;;;;;8.75;6.10;;;;;;;33.14;25.39;100265.91;5070652;28;20028;-22
2021/08/22 10:44:36;;;;;;;7.55;4.43;;;;;;;33.56;26.08;100263.09;5088166;28;20074;-21
2021/08/22 10:47:11;;;;;;;9.63;6.18;;;;;;;33.54;24.13;100262.66;5088176;28;20032;-21
2021/08/22 10:49:55;;;;;;;6.85;4.45;;;;;;;33.53;24.38;100266.63;5088303;28;20028;-21
2021/08/22 10:52:26;;;;;;;5.90;4.25;;;;;;;34.21;24.19;100255.81;5088365;28;20035;-21
2021/08/22 10:55:10;;;;;;;7.50;4.28;;;;;;;34.28;24.39;100258.66;5088165;28;20024;-22
2021/08/22 10:57:42;;;;;;;6.93;4.25;;;;;;;33.64;25.85;100250.22;5088180;28;20480;-21
2021/08/22 11:00:24;;;;;;;6.78;4.57;;;;;;;33.33;24.75;100256.78;5087798;28;20055;-21
2021/08/22 11:02:50;;;;;;;8.55;6.10;;;;;;;33.32;24.60;100238.59;5088491;28;20135;-21
2021/08/22 11:05:17;;;;;;;9.15;4.97;;;;;;;33.98;24.05;100242.81;5069672;28;20115;-21
2021/08/22 11:07:46;;;;;;;5.93;4.20;;;;;;;33.94;24.21;100239.22;5073221;28;20028;-21
2021/08/22 11:10:15;;;;;;;5.70;4.35;;;;;;;34.27;23.18;100243.25;5108111;28;20058;-21
2021/08/22 11:12:41;;;;;;;7.03;5.28;;;;;;;34.36;24.26;100232.66;5107998;28;20024;-22
2021/08/22 11:15:07;;;;;;;5.85;4.68;;;;;;;34.24;24.12;100227.38;5108210;28;20034;-21
2021/08/22 11:17:32;;;;;;;6.28;4.78;;;;;;;33.83;24.32;100232.72;5108370;28;20035;-21
2021/08/22 11:20:08;;;;;;;7.93;4.28;;;;;;;34.53;23.97;100239.59;5108233;28;20023;-21
2021/08/22 11:22:33;;;;;;;5.90;4.68;;;;;;;34.50;23.06;100228.47;5107536;28;20100;-21
2021/08/22 11:24:59;;;;;;;9.10;5.00;;;;;;;34.81;23.61;100224.50;5108074;28;20035;-22
2021/08/22 11:27:26;;;;;;;6.97;4.28;;;;;;;35.04;22.34;100218.78;5108090;28;20520;-21
2021/08/22 11:29:55;;;;;;;;;;;;;;;34.24;23.81;100230.13;5108555;28;20144;-22
2021/08/22 11:32:20;;;;;;;9.55;4.25;;;;;;;34.12;24.19;100219.28;5103017;28;19923;-21